Latest Weather Observations for Broken Hill Airport

IDN60801

Issued at 4:35 pm EDT Sunday 26 October 2014 (issued every 30 minutes, with the page automatically refreshed every 10 minutes)

About weather observations | Map of weather stations | Latest weather observations for NSW | Other Formats
Station Details ID: 047048 Name: BROKEN HILL AIRPORT AWS Lat: -32.00 Lon: 141.47 Height: 281.3 m
Data from the previous 72 hours. | See also: Recent months for locations in New South Wales
Date/Time
EDT
Temp
°C
App
Temp
°C
Dew
Point
Rel
Hum
%
Delta-T
°C
Wind Press
QNH
hPa
Press
MSL
hPa
Rain
since 9 am
mm
Dir
 
Spd
km/h
Gust
km/h
Spd
kts
Gust
kts
26/04:30pm 30.1 25.5 5.4 21 13.1 S 19 24 10 13 1013.4 1012.7 0.0
26/04:00pm 30.4 25.6 5.6 21 13.2 S 20 24 11 13 1013.8 1013.1 0.0
26/03:30pm 30.0 26.5 5.3 21 13.1 SE 13 24 7 13 1014.0 1013.3 0.0
26/03:00pm 30.1 25.3 4.7 20 13.3 SSE 19 32 10 17 1014.2 1013.5 0.0
26/02:30pm 29.3 24.6 6.0 23 12.4 SSE 20 28 11 15 1014.5 1013.8 0.0
26/02:00pm 27.9 21.9 5.5 24 11.8 S 26 37 14 20 1015.5 1014.7 0.0
26/01:30pm 28.8 21.6 5.0 22 12.5 SSW 32 39 17 21 1015.9 1015.1 0.0
26/01:00pm 28.3 22.3 5.2 23 12.1 SSW 26 35 14 19 1015.8 1015.0 0.0
26/12:30pm 29.2 22.8 5.3 22 12.6 S 28 44 15 24 1015.7 1014.9 0.0
26/12:12pm 28.8 21.8 4.3 21 12.7 S 30 48 16 26 1015.8 1015.0 0.0
26/12:00pm 30.2 24.1 4.8 20 13.3 SSW 26 44 14 24 1016.0 1015.3 0.0
26/11:45am 31.0 24.3 3.9 18 14.1 SSW 28 43 15 23 1016.0 1015.3 0.0
26/11:30am 30.7 28.0 3.7 18 14.0 ENE 7 13 4 7 1014.6 1013.9 0.0
26/11:00am 30.6 27.7 4.4 19 13.7 ENE 9 15 5 8 1014.4 1013.7 0.0
26/10:30am 29.0 25.7 4.5 21 12.7 ESE 11 17 6 9 1014.4 1013.7 0.0
26/10:00am 27.4 23.1 5.1 24 11.6 NE 17 20 9 11 1014.4 1013.7 0.0
26/09:30am 25.7 20.8 5.3 27 10.5 ENE 20 24 11 13 1014.2 1013.5 0.0
26/09:00am 25.2 20.6 5.4 28 10.2 ENE 19 24 10 13 1014.3 1013.6 0.0
26/08:30am 24.2 20.1 4.6 28 9.9 E 15 19 8 10 1014.4 1013.7 0.0
26/08:00am 21.9 19.4 4.9 33 8.5 E 7 11 4 6 1014.3 1013.6 0.0
26/07:30am 19.2 16.8 4.2 37 7.3 SE 6 7 3 4 1014.4 1013.7 0.0
26/07:00am 17.7 16.4 3.9 40 6.6 CALM 0 0 0 0 1014.3 1013.6 0.0
26/06:30am 18.0 16.7 4.2 40 6.6 WSW 0 0 0 0 1014.2 1013.5 0.0
26/06:00am 17.0 14.3 3.7 41 6.3 SSW 7 9 4 5 1014.2 1013.5 0.0
26/05:30am 18.5 17.2 3.9 38 7.0 CALM 0 0 0 0 1014.0 1013.3 0.0
26/05:00am 18.4 16.5 3.1 36 7.2 S 2 7 1 4 1014.0 1013.3 0.0
26/04:30am 18.5 16.1 2.4 34 7.5 S 4 9 2 5 1014.0 1013.3 0.0
26/04:00am 19.1 17.0 2.0 32 7.9 SSW 2 9 1 5 1014.3 1013.6 0.0
26/03:30am 19.7 17.4 0.7 28 8.6 S 2 6 1 3 1014.4 1013.7 0.0
26/03:00am 19.8 16.6 -0.2 26 8.9 SW 6 9 3 5 1014.7 1014.0 0.0
26/02:30am 20.0 16.2 -0.6 25 9.1 WSW 9 11 5 6 1015.0 1014.3 0.0
26/02:00am 22.1 19.9 -1.2 21 10.4 CALM 0 0 0 0 1014.8 1014.1 0.0
26/01:30am 21.8 19.4 -2.8 19 10.6 CALM 0 0 0 0 1015.2 1014.5 0.0
26/01:00am 21.8 19.4 -3.5 18 10.7 CALM 0 6 0 3 1015.7 1014.9 0.0
26/12:30am 22.6 18.3 -4.5 16 11.4 SW 9 11 5 6 1015.8 1015.0 0.0
26/12:00am 24.4 18.6 -4.8 14 12.4 WSW 17 20 9 11 1016.0 1015.3 0.0
 
Date/Time
EDT
Temp
°C
App
Temp
°C
Dew
Point
Rel
Hum
%
Delta-T
°C
Wind Press
QNH
hPa
Press
MSL
hPa
Rain
since 9 am
mm
Dir
 
Spd
km/h
Gust
km/h
Spd
kts
Gust
kts
25/11:30pm 23.8 18.7 -5.3 14 12.2 W 13 17 7 9 1015.8 1015.0 0.0
25/11:00pm 25.9 20.4 -5.6 12 13.3 WSW 15 20 8 11 1015.7 1014.9 0.0
25/10:30pm 26.2 20.7 -5.4 12 13.5 WSW 15 19 8 10 1015.7 1014.9 0.0
25/10:00pm 28.2 22.4 -5.0 11 14.5 WSW 17 22 9 12 1015.5 1014.7 0.0
25/09:30pm 30.3 22.9 -3.4 11 15.4 WSW 26 37 14 20 1015.1 1014.4 0.0
25/09:00pm 31.2 24.4 -1.5 12 15.5 W 24 30 13 16 1014.5 1013.8 0.0
25/08:30pm 31.6 25.8 -0.1 13 15.5 WSW 20 26 11 14 1014.1 1013.4 0.0
25/08:00pm 32.5 27.7 2.5 15 15.4 WSW 17 24 9 13 1013.7 1013.0 0.0
25/07:30pm 33.7 28.5 3.5 15 15.9 SW 20 28 11 15 1013.3 1012.6 0.0
25/07:00pm 34.9 29.7 3.5 14 16.6 SSW 20 26 11 14 1012.9 1012.2 0.0
25/06:30pm 35.9 30.3 3.2 13 17.3 WSW 22 35 12 19 1012.7 1011.9 0.0
25/06:00pm 35.9 29.7 4.2 14 17.0 SW 26 37 14 20 1012.5 1011.7 0.0
25/05:30pm 36.6 29.5 3.7 13 17.6 WSW 30 39 16 21 1012.7 1011.9 0.0
25/05:00pm 37.0 31.1 4.0 13 17.8 SW 24 35 13 19 1012.7 1011.9 0.0
25/04:30pm 37.4 32.0 4.4 13 17.9 WSW 22 37 12 20 1013.0 1012.3 0.0
25/04:00pm 36.1 29.7 3.3 13 17.4 WSW 26 43 14 23 1013.3 1012.6 0.0
25/03:49pm 36.7 29.3 3.8 13 17.6 WSW 32 56 17 30 1013.4 1012.7 0.0
25/03:30pm 36.5 31.3 3.7 13 17.5 W 20 30 11 16 1013.8 1013.1 0.0
25/03:00pm 36.5 29.4 3.7 13 17.5 SW 30 44 16 24 1014.1 1013.4 0.0
25/02:30pm 35.8 29.4 3.1 13 17.3 SW 26 43 14 23 1014.4 1013.7 0.0
25/02:00pm 36.2 29.3 4.5 14 17.1 WSW 30 43 16 23 1014.8 1014.1 0.0
25/01:30pm 36.4 30.3 4.6 14 17.2 WSW 26 35 14 19 1014.9 1014.2 0.0
25/01:00pm 36.0 29.0 4.3 14 17.1 WSW 30 41 16 22 1015.2 1014.5 0.0
25/12:30pm 35.8 29.2 4.2 14 17.0 W 28 37 15 20 1015.6 1014.8 0.0
25/12:00pm 35.5 28.3 2.9 13 17.1 W 30 41 16 22 1015.8 1015.0 0.0
25/11:30am 36.2 30.2 3.4 13 17.4 WNW 24 33 13 18 1015.9 1015.1 0.0
25/11:00am 35.0 29.2 2.5 13 16.9 WNW 22 32 12 17 1016.1 1015.4 0.0
25/10:30am 32.9 28.9 2.9 15 15.5 WNW 13 22 7 12 1016.2 1015.5 0.0
25/10:00am 30.4 27.0 4.2 19 13.6 WNW 11 17 6 9 1016.2 1015.5 0.0
25/09:30am 27.6 23.9 4.6 23 11.9 W 13 19 7 10 1016.0 1015.3 0.0
25/09:00am 25.7 22.7 4.2 25 10.9 SW 9 15 5 8 1015.8 1015.0 0.0
25/08:30am 24.4 20.7 4.2 27 10.1 SW 13 15 7 8 1015.9 1015.1 0.0
25/08:00am 23.5 19.7 4.0 28 9.7 WSW 13 17 7 9 1015.5 1014.7 0.0
25/07:30am 22.3 18.6 2.4 27 9.5 SW 11 13 6 7 1015.6 1014.8 0.0
25/07:00am 23.3 18.1 3.3 27 9.8 SSW 20 28 11 15 1015.0 1014.3 0.0
25/06:30am 25.9 22.1 1.9 21 11.7 NNW 11 17 6 9 1014.3 1013.6 0.0
25/06:00am 26.4 22.3 2.3 21 11.8 NNW 13 19 7 10 1014.0 1013.3 0.0
25/05:30am 25.7 21.6 2.4 22 11.4 NNW 13 19 7 10 1013.8 1013.1 0.0
25/05:14am 25.7 21.8 3.6 24 11.1 NW 13 20 7 11 1013.9 1013.2 0.0
25/05:00am 20.6 18.5 2.0 29 8.7 N 2 9 1 5 1013.8 1013.1 0.0
25/04:30am 21.3 17.3 3.0 30 8.8 NE 13 17 7 9 1013.5 1012.8 0.0
25/04:00am 21.0 18.0 2.3 29 8.8 NNE 7 9 4 5 1013.5 1012.8 0.0
25/03:30am 20.7 17.3 2.0 29 8.8 N 9 11 5 6 1013.6 1012.9 0.0
25/03:00am 23.4 19.9 1.1 23 10.5 N 9 11 5 6 1013.7 1013.0 0.0
25/02:30am 26.3 22.8 3.5 23 11.4 NNE 11 13 6 7 1014.0 1013.3 0.0
25/02:00am 23.6 19.6 3.0 26 10.1 ENE 13 17 7 9 1014.4 1013.7 0.0
25/01:56am 23.5 19.8 2.4 25 10.2 ENE 11 15 6 8 1014.4 1013.7 0.0
25/01:30am 28.5 24.5 2.7 19 12.9 N 13 15 7 8 1014.7 1014.0 0.0
25/01:00am 29.2 25.5 2.5 18 13.4 N 11 13 6 7 1014.8 1014.1 0.0
25/12:30am 29.8 26.4 2.1 17 13.9 N 9 11 5 6 1014.9 1014.2 0.0
25/12:05am 30.9 26.9 3.0 17 14.3 N 13 19 7 10 1015.1 1014.4 0.0
25/12:00am 31.1 26.6 2.3 16 14.6 N 15 20 8 11 1015.1 1014.4 0.0
 
Date/Time
EDT
Temp
°C
App
Temp
°C
Dew
Point
Rel
Hum
%
Delta-T
°C
Wind Press
QNH
hPa
Press
MSL
hPa
Rain
since 9 am
mm
Dir
 
Spd
km/h
Gust
km/h
Spd
kts
Gust
kts
24/11:46pm 31.4 27.0 2.6 16 14.7 N 15 20 8 11 1015.1 1014.4 0.0
24/11:30pm 31.1 27.0 2.3 16 14.6 NNW 13 19 7 10 1015.2 1014.5 0.0
24/11:00pm 30.2 27.0 3.3 18 13.8 N 9 13 5 7 1015.5 1014.7 0.0
24/10:30pm 29.9 26.7 3.0 18 13.7 N 9 13 5 7 1015.2 1014.5 0.0
24/10:00pm 29.9 26.3 3.0 18 13.7 N 11 13 6 7 1015.1 1014.4 0.0
24/09:30pm 30.0 26.4 3.1 18 13.7 N 11 13 6 7 1015.2 1014.5 0.0
24/09:00pm 30.4 26.9 3.4 18 13.9 N 11 15 6 8 1015.1 1014.4 0.0
24/08:30pm 30.8 27.6 2.9 17 14.3 N 9 11 5 6 1014.9 1014.2 0.0
24/08:00pm 31.6 28.3 2.7 16 14.8 NNW 9 11 5 6 1014.8 1014.1 0.0
24/07:30pm 32.6 29.7 2.6 15 15.4 NW 7 9 4 5 1014.5 1013.8 0.0
24/07:00pm 33.8 28.8 1.6 13 16.4 W 17 22 9 12 1014.3 1013.6 0.0
24/06:30pm 34.7 29.3 2.3 13 16.8 WNW 20 33 11 18 1014.2 1013.5 0.0
24/06:00pm 35.2 30.6 1.5 12 17.3 W 15 19 8 10 1014.1 1013.4 0.0
24/05:30pm 35.0 30.4 1.4 12 17.2 W 15 26 8 14 1014.1 1013.4 0.0
24/05:00pm 34.9 29.7 0.1 11 17.4 WNW 17 22 9 12 1014.2 1013.5 0.0
24/04:30pm 34.1 28.8 -0.5 11 17.1 WNW 17 26 9 14 1014.3 1013.6 0.0
24/04:00pm 33.7 29.1 1.5 13 16.4 NW 15 20 8 11 1014.7 1014.0 0.0
24/03:30pm 33.5 27.5 1.3 13 16.3 WNW 22 28 12 15 1014.9 1014.2 0.0
24/03:00pm 33.3 27.5 0.1 12 16.4 WNW 20 28 11 15 1015.2 1014.5 0.0
24/02:30pm 34.2 28.0 -0.4 11 17.1 NW 22 39 12 21 1015.2 1014.5 0.0
24/02:00pm 34.3 28.5 -0.4 11 17.1 WNW 20 30 11 16 1015.6 1014.8 0.0
24/01:30pm 34.2 28.0 -0.4 11 17.1 W 22 32 12 17 1015.8 1015.0 0.0
24/01:00pm 33.7 28.5 0.4 12 16.6 WNW 17 24 9 13 1016.0 1015.3 0.0
24/12:30pm 33.0 27.4 -0.2 12 16.3 WNW 19 26 10 14 1016.2 1015.5 0.0
24/12:00pm 32.3 26.6 0.4 13 15.8 W 20 33 11 18 1016.5 1015.8 0.0
24/11:30am 31.3 25.2 0.6 14 15.1 W 22 32 12 17 1016.7 1016.0 0.0
24/11:00am 31.0 24.7 1.4 15 14.7 WNW 24 30 13 16 1016.7 1016.0 0.0
24/10:30am 31.0 25.4 1.4 15 14.8 WNW 20 30 11 16 1016.7 1016.0 0.0
24/10:00am 30.1 24.8 3.2 18 13.7 WNW 20 26 11 14 1016.6 1015.9 0.0
24/09:30am 28.2 26.2 6.9 26 11.5 N 7 13 4 7 1016.5 1015.8 0.0
24/09:00am 26.0 23.7 7.6 31 9.9 N 9 9 5 5 1016.5 1015.8 0.0
24/08:30am 24.7 21.3 7.8 34 9.1 NNE 15 19 8 10 1015.9 1015.1 0.0
24/08:00am 22.1 19.1 7.5 39 7.7 NNE 13 15 7 8 1015.6 1014.8 0.0
24/07:30am 19.3 18.0 7.7 47 6.0 NNE 4 9 2 5 1015.5 1014.7 0.0
24/07:00am 18.0 17.2 6.5 47 5.8 CALM 0 0 0 0 1015.7 1014.9 0.0
24/06:30am 18.6 17.8 6.4 45 6.1 CALM 0 0 0 0 1015.5 1014.7 0.0
24/06:00am 19.4 18.6 6.5 43 6.5 CALM 0 0 0 0 1015.1 1014.4 0.0
24/05:30am 19.2 18.4 6.3 43 6.5 CALM 0 0 0 0 1015.0 1014.3 0.0
24/05:00am 19.8 19.1 6.9 43 6.6 CALM 0 0 0 0 1014.8 1014.1 0.0
24/04:30am 17.5 15.1 4.5 42 6.3 WSW 6 7 3 4 1014.7 1014.0 0.0
24/04:00am 18.3 15.4 4.5 40 6.7 WSW 9 13 5 7 1014.7 1014.0 0.0
24/03:30am 18.7 16.6 3.7 37 7.2 SSW 4 6 2 3 1014.4 1013.7 0.0
24/03:00am 20.7 19.6 5.1 36 7.8 CALM 0 0 0 0 1014.8 1014.1 0.0
24/02:30am 20.8 17.9 4.4 34 8.1 SW 9 9 5 5 1015.2 1014.5 0.0
24/02:00am 21.6 18.2 4.2 32 8.6 SW 11 13 6 7 1015.8 1015.0 0.0
24/01:30am 22.8 19.1 4.3 30 9.2 WSW 13 17 7 9 1015.8 1015.0 0.0
24/01:00am 24.1 19.6 4.0 27 10.0 WSW 17 22 9 12 1015.9 1015.1 0.0
24/12:30am 24.3 18.7 -0.1 20 11.3 W 19 22 10 12 1015.6 1014.8 0.0
24/12:00am 25.1 19.7 -1.6 17 12.1 WNW 17 22 9 12 1015.1 1014.4 0.0
 
Date/Time
EDT
Temp
°C
App
Temp
°C
Dew
Point
Rel
Hum
%
Delta-T
°C
Wind Press
QNH
hPa
Press
MSL
hPa
Rain
since 9 am
mm
Dir
 
Spd
km/h
Gust
km/h
Spd
kts
Gust
kts
23/11:30pm 26.4 21.1 -3.2 14 13.2 NW 15 17 8 9 1014.9 1014.2 0.0
23/11:00pm 27.0 21.7 -3.7 13 13.6 NW 15 17 8 9 1014.9 1014.2 0.0
23/10:30pm 28.3 23.1 -2.7 13 14.1 NW 15 20 8 11 1014.7 1014.0 0.0
23/10:00pm 29.3 24.0 -0.9 14 14.3 NW 17 22 9 12 1014.6 1013.9 0.0
23/09:30pm 28.9 25.4 1.4 17 13.5 NNW 9 9 5 5 1014.0 1013.3 0.0
23/09:00pm 29.8 26.3 1.3 16 14.1 NW 9 11 5 6 1013.8 1013.1 0.0
23/08:30pm 29.5 25.8 0.2 15 14.2 WNW 9 11 5 6 1013.6 1012.9 0.0
23/08:00pm 30.2 26.1 -0.2 14 14.7 WNW 11 15 6 8 1013.2 1012.5 0.0
23/07:30pm 32.2 27.0 0.3 13 15.7 WNW 17 24 9 13 1013.0 1012.3 0.0
23/07:00pm 33.5 27.9 1.3 13 16.3 W 20 28 11 15 1012.8 1012.0 0.0
23/06:30pm 34.5 28.1 1.0 12 17.0 WNW 24 35 13 19 1012.6 1011.8 0.0
23/06:00pm 35.1 28.8 1.5 12 17.2 WNW 24 35 13 19 1012.5 1011.7 0.0
23/05:30pm 35.2 29.1 2.6 13 17.0 NW 24 35 13 19 1012.6 1011.8 0.0

Other Formats:

Comma delimited format used in spreadsheet applications
http://www.bom.gov.au/fwo/IDN60801/IDN60801.94691.axf

JavaScript Object Notation format (JSON) in row-major order
http://www.bom.gov.au/fwo/IDN60801/IDN60801.94691.json